Farmersville's Hourly Summary for Tuesday, July 10, 2018
Hour Temp
(f)
RH
(%)
Solar Rad.
(MJ/m2)
Rainfall
(in)
Wind
(mph)
7/10/2018 12:00 AM 75 100 0 0 0.08
7/10/2018 1:00 AM 75 100 0 0 0.04
7/10/2018 2:00 AM 74 99 0 0 0
7/10/2018 3:00 AM 73 99 0.01 0 0
7/10/2018 4:00 AM 73 99 0.01 0 0
7/10/2018 5:00 AM 72 99 0 0 0
7/10/2018 6:00 AM 72 99 0.01 0 0
7/10/2018 7:00 AM 72 99 0.03 0 0
7/10/2018 8:00 AM 73 99 0.21 0 0
7/10/2018 9:00 AM 75 99 0.55 0 0.02
7/10/2018 10:00 AM 77 93 0.87 0 1.2
7/10/2018 11:00 AM 82 62 1.99 0 2.38
7/10/2018 12:00 PM 87 52 2.63 0 1.41
7/10/2018 1:00 PM 89 51 2.22 0 1.46
7/10/2018 2:00 PM 90 48 2.13 0 1.32
7/10/2018 3:00 PM 93 43 2.56 0 1.21
7/10/2018 4:00 PM 93 42 2.11 0 2.19
7/10/2018 5:00 PM 93 41 2.08 0 4.27
7/10/2018 6:00 PM 85 56 0.75 0 6.11
7/10/2018 7:00 PM 84 57 0.57 0 3.3
7/10/2018 8:00 PM 84 59 0.24 0 1.4
7/10/2018 9:00 PM 82 63 0.03 0 0.37
7/10/2018 10:00 PM 80 71 0 0 0
7/10/2018 11:00 PM 78 73 0 0 0.21
Data Summary 80 75 19.00 0.00 1.12